Time;durP1;ratioP1;P1;durP2;ratioP2;P2;SDS_P1;SDS_P2;PMS_P1;PMS_P2;Temp;Humidity;BMP_temperature;BMP_pressure;BME280_temperature;BME280_humidity;BME280_pressure;Samples;Min_cycle;Max_cycle;Signal;HPM_P1;HPM_P2
2022/04/24 00:00:24;;;;;;;;;;;;;;;12.43;47.74;90841.41;2052032;69;20054;-70
2022/04/24 00:02:50;;;;;;;;;;;;;;;12.52;48.04;90850.78;2052152;70;20078;-69
2022/04/24 00:05:16;;;;;;;;;;;;;;;12.58;47.04;90886.91;2052299;69;20055;-69
2022/04/24 00:07:43;;;;;;;;;;;;;;;12.45;48.32;90885.88;2052238;70;20058;-68
2022/04/24 00:10:10;;;;;;;;;;;;;;;12.56;48.36;90893.22;2048972;70;20051;-69
2022/04/24 00:12:36;;;;;;;;;;;;;;;12.61;47.67;90857.34;2049065;69;20047;-70
2022/04/24 00:15:01;;;;;;;;;;;;;;;12.52;47.68;90859.25;2052125;70;20065;-68
2022/04/24 00:17:27;;;;;;;;;;;;;;;12.59;46.77;90857.28;2051862;70;20425;-69
2022/04/24 00:19:52;;;;;;;;;;;;;;;12.55;46.98;90862.84;2052047;70;20058;-69
2022/04/24 00:22:18;;;;;;;;;;;;;;;12.49;47.64;90866.22;2051945;70;20067;-68
2022/04/24 00:24:44;;;;;;;;;;;;;;;12.55;46.92;90857.91;2052023;69;20069;-68
2022/04/24 00:27:09;;;;;;;;;;;;;;;12.64;46.82;90867.28;2051946;70;20488;-67
2022/04/24 00:29:35;;;;;;;;;;;;;;;12.70;46.22;90862.50;2051971;70;20043;-68
2022/04/24 00:32:00;;;;;;;;;;;;;;;12.81;46.06;90862.75;2052145;70;20074;-68
2022/04/24 00:34:26;;;;;;;;;;;;;;;12.83;45.54;90866.34;2052143;69;20064;-68
2022/04/24 00:36:52;;;;;;;;;;;;;;;12.83;45.67;90845.84;2052260;70;20133;-68
2022/04/24 00:39:17;;;;;;;;;;;;;;;12.91;45.67;90866.50;2052155;70;20478;-69
2022/04/24 00:41:44;;;;;;;;;;;;;;;12.82;46.14;90867.00;2049021;70;20050;-70
2022/04/24 00:44:09;;;;;;;;;;;;;;;12.83;45.65;90877.63;2048917;69;20119;-69
2022/04/24 00:46:55;;;;;;;;;;;;;;;12.82;45.56;90889.59;2051886;70;20054;-70
2022/04/24 00:49:22;;;;;;;;;;;;;;;12.89;45.30;90882.72;2051887;70;20528;-72
2022/04/24 00:51:47;;;;;;;;;;;;;;;12.99;44.83;90863.16;2048463;70;20135;-69
2022/04/24 00:54:13;;;;;;;;;;;;;;;12.98;45.03;90881.50;2048564;70;20409;-71
2022/04/24 00:56:39;;;;;;;;;;;;;;;12.79;45.31;90900.13;2051908;70;20151;-71
2022/04/24 00:59:05;;;;;;;;;;;;;;;13.01;45.07;90873.78;2051934;69;20066;-69
2022/04/24 01:01:31;;;;;;;;;;;;;;;13.05;45.69;90859.75;2051924;69;20101;-70
2022/04/24 01:03:59;;;;;;;;;;;;;;;12.92;45.64;90865.16;2052299;70;20049;-69
2022/04/24 01:06:27;;;;;;;;;;;;;;;12.91;45.35;90894.75;2052062;70;20552;-69
2022/04/24 01:08:52;;;;;;;;;;;;;;;12.72;45.97;90909.81;2051599;69;20413;-71
2022/04/24 01:11:18;;;;;;;;;;;;;;;12.78;45.93;90898.66;2051927;70;20058;-70
2022/04/24 01:13:43;;;;;;;;;;;;;;;12.63;46.12;90871.50;2042744;70;20086;-71
2022/04/24 01:16:08;;;;;;;;;;;;;;;12.63;46.10;90874.31;2049003;70;20117;-69
2022/04/24 01:18:35;;;;;;;;;;;;;;;12.55;45.71;90860.72;2048667;70;20138;-69
2022/04/24 01:21:08;;;;;;;;;;;;;;;12.54;45.45;90850.13;2048060;70;20047;-69
2022/04/24 01:23:34;;;;;;;;;;;;;;;12.58;45.29;90828.34;2048348;70;20149;-71
2022/04/24 01:25:59;;;;;;;;;;;;;;;12.49;45.67;90842.94;2048501;70;20046;-72
2022/04/24 01:28:25;;;;;;;;;;;;;;;12.55;45.56;90851.53;2048645;70;20047;-71
2022/04/24 01:30:50;;;;;;;;;;;;;;;12.65;45.13;90846.16;2048557;70;20120;-69
2022/04/24 01:33:15;;;;;;;;;;;;;;;12.43;44.95;90858.34;2048564;70;20474;-69
2022/04/24 01:35:41;;;;;;;;;;;;;;;12.52;43.57;90847.25;2048019;70;20063;-70
2022/04/24 01:38:06;;;;;;;;;;;;;;;12.70;43.25;90830.75;2048640;70;20063;-70
2022/04/24 01:40:32;;;;;;;;;;;;;;;12.56;43.50;90855.81;2048262;70;20062;-70
2022/04/24 01:42:57;;;;;;;;;;;;;;;12.64;42.64;90856.00;2048258;70;20166;-69
2022/04/24 01:45:23;;;;;;;;;;;;;;;12.68;42.50;90837.03;2048913;70;20054;-68
2022/04/24 01:47:48;;;;;;;;;;;;;;;12.75;41.69;90842.84;2048741;70;20112;-68
2022/04/24 01:50:13;;;;;;;;;;;;;;;12.75;41.68;90842.84;2048691;70;20198;-68
2022/04/24 01:52:39;;;;;;;;;;;;;;;12.80;41.32;90872.59;2047885;70;20102;-69
2022/04/24 01:55:04;;;;;;;;;;;;;;;12.80;40.53;90844.38;2048668;70;20797;-69
2022/04/24 01:57:30;;;;;;;;;;;;;;;12.87;40.52;90838.19;2048350;70;20092;-68
2022/04/24 01:59:55;;;;;;;;;;;;;;;12.91;40.25;90834.72;2047856;70;20047;-68
2022/04/24 02:02:21;;;;;;;;;;;;;;;12.68;40.30;90836.34;2048467;70;20156;-71
2022/04/24 02:04:46;;;;;;;;;;;;;;;12.44;42.54;90856.94;2047770;70;20154;-70
2022/04/24 02:07:12;;;;;;;;;;;;;;;12.45;43.36;90838.63;2047943;70;20154;-69
2022/04/24 02:09:39;;;;;;;;;;;;;;;12.54;43.16;90853.66;2048431;70;20500;-68
2022/04/24 02:12:05;;;;;;;;;;;;;;;12.32;44.82;90847.47;2047885;70;20070;-69
2022/04/24 02:14:30;;;;;;;;;;;;;;;11.94;46.06;90850.75;2051122;70;20057;-68
2022/04/24 02:16:56;;;;;;;;;;;;;;;12.19;45.60;90866.22;2051659;70;20124;-68
2022/04/24 02:19:21;;;;;;;;;;;;;;;12.21;45.53;90854.97;2051887;70;20062;-68
2022/04/24 02:21:46;;;;;;;;;;;;;;;12.27;45.43;90841.00;2051665;70;20105;-68
2022/04/24 02:24:12;;;;;;;;;;;;;;;12.38;44.76;90862.44;2051576;70;20077;-69
2022/04/24 02:26:37;;;;;;;;;;;;;;;12.42;44.15;90853.38;2051642;70;20573;-68
2022/04/24 02:29:03;;;;;;;;;;;;;;;12.34;45.19;90828.50;2048587;70;20109;-68
2022/04/24 02:31:28;;;;;;;;;;;;;;;12.02;44.14;90844.59;2051651;70;20067;-69
2022/04/24 02:33:54;;;;;;;;;;;;;;;12.00;45.09;90848.06;2048413;70;20155;-71
2022/04/24 02:36:19;;;;;;;;;;;;;;;12.02;45.51;90850.97;2051817;70;20482;-69
2022/04/24 02:38:45;;;;;;;;;;;;;;;11.62;46.51;90836.47;2051583;69;20058;-70
2022/04/24 02:41:10;;;;;;;;;;;;;;;11.71;45.22;90832.50;2048254;70;20074;-71
2022/04/24 02:43:36;;;;;;;;;;;;;;;11.83;44.60;90840.59;2048341;70;20051;-68
2022/04/24 02:46:01;;;;;;;;;;;;;;;11.71;42.43;90821.94;2051541;69;20062;-69
2022/04/24 02:48:27;;;;;;;;;;;;;;;11.61;42.44;90835.75;2051533;69;20058;-67
2022/04/24 02:50:53;;;;;;;;;;;;;;;11.61;42.92;90838.59;2048407;69;20548;-66
2022/04/24 02:53:19;;;;;;;;;;;;;;;11.61;42.84;90821.69;2051967;70;20047;-67
2022/04/24 02:55:45;;;;;;;;;;;;;;;11.52;43.68;90824.94;2051948;70;20053;-69
2022/04/24 02:58:10;;;;;;;;;;;;;;;11.17;45.58;90847.22;2051864;70;20077;-68
2022/04/24 03:00:49;;;;;;;;;;;;;;;11.59;43.39;90841.34;2051478;70;20432;-68
2022/04/24 03:03:18;;;;;;;;;;;;;;;11.61;43.26;90838.59;2051812;70;20515;-68
2022/04/24 03:05:48;;;;;;;;;;;;;;;11.31;44.23;90844.09;2051792;70;20477;-69
2022/04/24 03:08:14;;;;;;;;;;;;;;;11.31;44.56;90841.25;2051530;70;20646;-71
2022/04/24 03:10:40;;;;;;;;;;;;;;;11.23;45.04;90831.91;2051916;70;20039;-70
2022/04/24 03:13:05;;;;;;;;;;;;;;;11.16;44.90;90842.97;2051585;69;20062;-68
2022/04/24 03:15:30;;;;;;;;;;;;;;;10.97;46.05;90837.47;2048403;70;20132;-68
2022/04/24 03:17:56;;;;;;;;;;;;;;;11.18;44.82;90842.31;2052208;70;20047;-69
2022/04/24 03:20:22;;;;;;;;;;;;;;;10.97;45.54;90849.44;2052619;70;20059;-68
2022/04/24 03:22:48;;;;;;;;;;;;;;;10.97;45.13;90846.63;2049195;70;20138;-69
2022/04/24 03:25:14;;;;;;;;;;;;;;;10.93;44.84;90866.94;2049377;70;20091;-70
2022/04/24 03:27:39;;;;;;;;;;;;;;;10.54;46.89;90862.22;2052722;70;20082;-69
2022/04/24 03:30:06;;;;;;;;;;;;;;;10.65;46.06;90849.91;2052656;70;20087;-69
2022/04/24 03:32:31;;;;;;;;;;;;;;;10.35;46.54;90871.44;2052656;70;20078;-68
2022/04/24 03:34:57;;;;;;;;;;;;;;;10.53;46.60;90866.41;2052744;70;20054;-69
2022/04/24 03:37:23;;;;;;;;;;;;;;;10.53;46.50;90880.47;2052608;70;20501;-70
2022/04/24 03:39:48;;;;;;;;;;;;;;;10.72;45.24;90878.22;2052503;70;20429;-71
2022/04/24 03:42:14;;;;;;;;;;;;;;;10.72;45.08;90887.41;2049255;70;20059;-70
2022/04/24 03:44:39;;;;;;;;;;;;;;;9.96;47.70;90895.47;2052727;70;20051;-70
2022/04/24 03:47:06;;;;;;;;;;;;;;;10.14;47.75;90901.69;2052589;70;20137;-69
2022/04/24 03:49:31;;;;;;;;;;;;;;;10.38;46.64;90895.47;2052634;69;20070;-69
2022/04/24 03:51:57;;;;;;;;;;;;;;;10.39;45.69;90883.53;2052659;70;20399;-69
2022/04/24 03:54:22;;;;;;;;;;;;;;;10.45;45.16;90897.09;2052456;70;20055;-68
2022/04/24 03:56:48;;;;;;;;;;;;;;;10.38;45.62;90901.09;2052709;70;20428;-69
2022/04/24 03:59:13;;;;;;;;;;;;;;;9.92;47.47;90920.63;2052596;70;20054;-69
2022/04/24 04:01:39;;;;;;;;;;;;;;;9.95;47.67;90924.22;2052667;69;20162;-69
2022/04/24 04:04:04;;;;;;;;;;;;;;;10.07;46.90;90910.56;2052720;70;20120;-69
2022/04/24 04:06:30;;;;;;;;;;;;;;;10.08;46.95;90918.38;2052577;70;20520;-69
2022/04/24 04:08:55;;;;;;;;;;;;;;;10.20;46.00;90923.66;2049176;70;20120;-69
2022/04/24 04:11:21;;;;;;;;;;;;;;;9.59;48.41;90927.19;2049242;70;20089;-70
2022/04/24 04:13:46;;;;;;;;;;;;;;;10.03;46.45;90936.44;2052523;70;20058;-70
2022/04/24 04:16:12;;;;;;;;;;;;;;;9.88;47.47;90946.47;2052599;70;20053;-69
2022/04/24 04:18:38;;;;;;;;;;;;;;;9.87;47.49;90938.72;2052551;70;20057;-70
2022/04/24 04:21:03;;;;;;;;;;;;;;;9.89;46.94;90941.56;2052494;70;20058;-71
2022/04/24 04:23:29;;;;;;;;;;;;;;;9.87;47.70;90941.53;2052390;69;20486;-69
2022/04/24 04:25:54;;;;;;;;;;;;;;;9.90;47.50;90943.75;2052595;70;20047;-68
2022/04/24 04:28:20;;;;;;;;;;;;;;;9.92;47.33;90940.28;2052401;70;20160;-70
2022/04/24 04:30:45;;;;;;;;;;;;;;;9.82;47.64;90943.47;2052486;70;20061;-68
2022/04/24 04:33:11;;;;;;;;;;;;;;;9.95;46.89;90950.25;2052471;70;20452;-69
2022/04/24 04:35:36;;;;;;;;;;;;;;;9.88;47.51;90954.91;2052720;70;20046;-69
2022/04/24 04:38:02;;;;;;;;;;;;;;;9.71;47.86;90952.88;2052382;70;20436;-70
2022/04/24 04:40:27;;;;;;;;;;;;;;;9.66;48.36;90945.69;2052588;70;20492;-72
2022/04/24 04:42:53;;;;;;;;;;;;;;;9.79;47.37;90952.47;2052473;70;20481;-71
2022/04/24 04:45:18;;;;;;;;;;;;;;;10.01;45.57;90955.34;2049182;69;20505;-71
2022/04/24 04:47:44;;;;;;;;;;;;;;;9.11;50.19;90966.13;2052552;69;20469;-71
2022/04/24 04:50:10;;;;;;;;;;;;;;;9.68;48.10;90962.63;2052579;70;20525;-70
2022/04/24 04:52:36;;;;;;;;;;;;;;;9.80;47.58;90973.56;2052475;70;20138;-69
2022/04/24 04:55:02;;;;;;;;;;;;;;;9.38;48.95;90968.56;2052598;70;20501;-69
2022/04/24 04:57:27;;;;;;;;;;;;;;;9.28;49.21;90973.81;2052657;70;20571;-69
2022/04/24 04:59:53;;;;;;;;;;;;;;;9.61;48.56;90980.63;2052460;69;20067;-68
2022/04/24 05:02:18;;;;;;;;;;;;;;;9.87;47.41;90975.97;2052390;70;20058;-69
2022/04/24 05:04:44;;;;;;;;;;;;;;;9.72;47.68;90993.69;2052562;70;20062;-69
2022/04/24 05:07:10;;;;;;;;;;;;;;;9.85;47.86;90992.03;2052545;69;20054;-70
2022/04/24 05:09:36;;;;;;;;;;;;;;;9.73;49.46;90997.22;2052313;69;20043;-69
2022/04/24 05:12:01;;;;;;;;;;;;;;;9.92;48.09;90999.31;2052445;69;20089;-69
2022/04/24 05:14:26;;;;;;;;;;;;;;;9.96;47.64;91002.28;2052473;70;20065;-70
2022/04/24 05:16:52;;;;;;;;;;;;;;;10.15;46.76;90998.00;2052425;69;20058;-69
2022/04/24 05:19:17;;;;;;;;;;;;;;;10.11;48.73;91006.28;2052514;69;20089;-70
2022/04/24 05:21:43;;;;;;;;;;;;;;;10.03;47.34;91012.34;2049034;70;20078;-67
2022/04/24 05:24:08;;;;;;;;;;;;;;;10.25;47.14;91004.00;2052285;70;20046;-70
2022/04/24 05:26:34;;;;;;;;;;;;;;;10.33;46.28;91004.28;2052406;70;20146;-70
2022/04/24 05:28:59;;;;;;;;;;;;;;;10.50;44.81;91002.75;2052406;69;20047;-69
2022/04/24 05:31:24;;;;;;;;;;;;;;;10.23;44.27;91009.53;2052358;70;20148;-70
2022/04/24 05:33:50;;;;;;;;;;;;;;;9.76;46.92;91004.34;2052363;70;20176;-67
2022/04/24 05:36:15;;;;;;;;;;;;;;;10.18;48.11;91005.88;2052511;69;20366;-69
2022/04/24 05:38:41;;;;;;;;;;;;;;;10.04;48.09;90999.03;2052242;70;20073;-70
2022/04/24 05:41:06;;;;;;;;;;;;;;;10.38;47.59;91010.78;2049055;70;20054;-71
2022/04/24 05:43:32;;;;;;;;;;;;;;;10.55;46.88;91015.59;2052334;70;20104;-70
2022/04/24 05:45:57;;;;;;;;;;;;;;;10.76;44.43;91011.34;2052359;70;20205;-72
2022/04/24 05:48:23;;;;;;;;;;;;;;;10.79;43.04;91010.03;2052485;70;20073;-72
2022/04/24 05:50:48;;;;;;;;;;;;;;;11.03;42.91;91007.28;2049030;70;20043;-70
2022/04/24 05:53:14;;;;;;;;;;;;;;;10.97;41.84;91009.19;2052176;70;20485;-70
2022/04/24 05:55:39;;;;;;;;;;;;;;;10.92;41.79;91002.72;2052346;70;20473;-70
2022/04/24 05:58:05;;;;;;;;;;;;;;;10.60;45.10;90991.84;2049039;70;20051;-70
2022/04/24 06:00:30;;;;;;;;;;;;;;;10.89;45.52;90996.28;2052277;70;20474;-69
2022/04/24 06:02:56;;;;;;;;;;;;;;;10.97;44.97;91001.47;2052306;70;20055;-69
2022/04/24 06:05:22;;;;;;;;;;;;;;;10.89;45.71;91004.75;2052326;70;20066;-71
2022/04/24 06:07:48;;;;;;;;;;;;;;;10.88;46.67;91006.13;2052345;69;20057;-69
2022/04/24 06:10:13;;;;;;;;;;;;;;;10.62;47.82;91008.78;2052510;70;20051;-70
2022/04/24 06:12:46;;;;;;;;;;;;;;;10.90;47.54;91003.38;2046192;69;20055;-71
2022/04/24 06:15:15;;;;;;;;;;;;;;;10.97;48.01;91004.28;2052308;70;20070;-69
2022/04/24 06:17:41;;;;;;;;;;;;;;;11.02;45.42;90991.78;2052313;69;20061;-71
2022/04/24 06:20:08;;;;;;;;;;;;;;;11.22;44.48;90986.06;2052194;70;20447;-70
2022/04/24 06:22:46;;;;;;;;;;;;;;;11.23;44.09;90987.50;2052327;69;20043;-71
2022/04/24 06:25:16;;;;;;;;;;;;;;;11.25;42.86;90986.84;2048846;70;20520;-71
2022/04/24 06:27:43;;;;;;;;;;;;;;;11.37;42.22;90979.50;2052219;69;20070;-70
2022/04/24 06:30:09;;;;;;;;;;;;;;;11.41;42.27;90978.91;2052246;70;20089;-71
2022/04/24 06:32:38;;;;;;;;;;;;;;;11.49;42.66;90987.56;2052180;70;20090;-70
2022/04/24 06:35:04;;;;;;;;;;;;;;;11.56;41.63;90975.13;2052244;70;20046;-70
2022/04/24 06:37:29;;;;;;;;;;;;;;;11.72;41.83;90986.13;2052189;70;20054;-70
2022/04/24 06:39:55;;;;;;;;;;;;;;;11.82;42.31;90986.47;2048835;70;20417;-71
2022/04/24 06:42:21;;;;;;;;;;;;;;;11.89;41.51;90988.06;2052322;70;20137;-70
2022/04/24 06:44:47;;;;;;;;;;;;;;;11.96;41.83;90986.16;2052371;70;20137;-69
2022/04/24 06:47:12;;;;;;;;;;;;;;;11.98;40.15;90974.94;2052316;70;20131;-70
2022/04/24 06:49:37;;;;;;;;;;;;;;;12.41;41.16;90979.59;2052287;70;20400;-71
2022/04/24 06:52:03;;;;;;;;;;;;;;;12.58;39.61;90980.75;2052666;70;20205;-70
2022/04/24 06:54:28;;;;;;;;;;;;;;;13.01;39.61;90978.28;2049368;70;20536;-71
2022/04/24 06:56:54;;;;;;;;;;;;;;;13.30;38.85;90977.59;2052637;70;20046;-72
2022/04/24 06:59:19;;;;;;;;;;;;;;;13.70;39.08;90979.91;2052824;69;20165;-71
2022/04/24 07:01:44;;;;;;;;;;;;;;;14.07;38.86;90987.06;2049432;70;20475;-71
2022/04/24 07:04:10;;;;;;;;;;;;;;;14.31;38.09;90988.94;2052896;70;20053;-71
2022/04/24 07:06:35;;;;;;;;;;;;;;;14.47;36.91;90987.13;2052688;70;20142;-71
2022/04/24 07:09:01;;;;;;;;;;;;;;;14.83;36.25;90992.06;2049449;70;20113;-72
2022/04/24 07:11:26;;;;;;;;;;;;;;;15.15;36.29;90977.03;2049340;69;20047;-70
2022/04/24 07:13:52;;;;;;;;;;;;;;;15.12;33.41;90984.06;2049310;70;20057;-70
2022/04/24 07:16:17;;;;;;;;;;;;;;;15.56;34.74;90986.19;2052764;70;20061;-70
2022/04/24 07:18:43;;;;;;;;;;;;;;;16.04;33.32;90986.19;2052688;69;20073;-71
2022/04/24 07:21:08;;;;;;;;;;;;;;;16.13;33.66;90989.84;2052625;69;20035;-71
2022/04/24 07:23:35;;;;;;;;;;;;;;;16.45;32.64;90984.56;2052538;69;20490;-73
2022/04/24 07:26:01;;;;;;;;;;;;;;;16.70;31.78;90984.84;2052673;69;20402;-70
2022/04/24 07:28:26;;;;;;;;;;;;;;;16.89;32.12;90986.47;2052656;70;20566;-72
2022/04/24 07:30:52;;;;;;;;;;;;;;;17.16;31.52;90993.16;2052615;69;20498;-73
2022/04/24 07:33:17;;;;;;;;;;;;;;;17.39;31.70;90994.06;2052787;69;20043;-72
2022/04/24 07:35:43;;;;;;;;;;;;;;;17.79;31.26;90984.44;2052678;70;20138;-71
2022/04/24 07:38:08;;;;;;;;;;;;;;;18.68;29.50;90992.03;2052525;69;20135;-70
2022/04/24 07:40:39;;;;;;;;;;;;;;;18.38;30.07;90995.47;2052676;70;20062;-69
2022/04/24 07:43:06;;;;;;;;;;;;;;;18.34;30.11;90989.75;2052766;69;20502;-68
2022/04/24 07:45:33;;;;;;;;;;;;;;;17.82;29.84;90997.25;2052677;70;20067;-72
2022/04/24 07:47:59;;;;;;;;;;;;;;;17.87;30.53;90998.75;2052720;70;20067;-71
2022/04/24 07:50:25;;;;;;;;;;;;;;;17.75;29.10;90998.63;2052528;70;20120;-70
2022/04/24 07:52:51;;;;;;;;;;;;;;;17.97;29.75;90998.78;2052500;70;20067;-71
2022/04/24 07:55:18;;;;;;;;;;;;;;;17.76;28.93;91008.59;2052727;69;20047;-70
2022/04/24 07:57:44;;;;;;;;;;;;;;;17.83;28.98;91000.84;2049249;69;20448;-69
2022/04/24 08:00:10;;;;;;;;;;;;;;;17.16;28.22;91000.97;2052579;69;20062;-70
2022/04/24 08:02:47;;;;;;;;;;;;;;;16.59;29.83;90994.66;2052343;70;20062;-72
2022/04/24 08:05:17;;;;;;;;;;;;;;;17.12;29.21;90995.94;2052548;70;20055;-72
2022/04/24 08:07:43;;;;;;;;;;;;;;;17.51;29.53;90993.47;2052679;70;20050;-74
2022/04/24 08:10:08;;;;;;;;;;;;;;;18.14;29.63;90999.59;2049101;70;20413;-74
2022/04/24 08:12:34;;;;;;;;;;;;;;;18.17;29.34;91003.88;2052554;70;20050;-73
2022/04/24 08:14:59;;;;;;;;;;;;;;;17.35;29.09;91001.84;2052531;70;20123;-70
2022/04/24 08:17:25;;;;;;;;;;;;;;;18.14;29.73;90993.19;2052755;69;20074;-71
2022/04/24 08:19:50;;;;;;;;;;;;;;;18.72;28.82;90994.91;2052605;70;20417;-70
2022/04/24 08:22:15;;;;;;;;;;;;;;;18.09;29.52;90988.88;2052495;70;20470;-70
2022/04/24 08:24:41;;;;;;;;;;;;;;;19.47;27.19;91000.81;2052417;70;20166;-70
2022/04/24 08:27:06;;;;;;;;;;;;;;;20.35;24.77;91005.78;2052517;70;20050;-72
2022/04/24 08:29:32;;;;;;;;;;;;;;;19.74;25.96;91004.38;2049304;70;20070;-68
2022/04/24 08:31:57;;;;;;;;;;;;;;;20.37;25.88;91006.47;2052654;69;20466;-72
2022/04/24 08:34:23;;;;;;;;;;;;;;;19.59;25.80;91002.22;2052623;69;20485;-70
2022/04/24 08:36:48;;;;;;;;;;;;;;;20.38;25.47;90998.59;2052527;70;20508;-73
2022/04/24 08:39:14;;;;;;;;;;;;;;;20.71;25.41;91011.41;2052376;70;20109;-73
2022/04/24 08:41:40;;;;;;;;;;;;;;;20.73;23.93;91007.81;2052479;70;20055;-71
2022/04/24 08:44:07;;;;;;;;;;;;;;;20.42;24.04;91007.88;2052509;69;20050;-69
2022/04/24 08:46:32;;;;;;;;;;;;;;;20.40;24.88;91007.91;2052477;70;20070;-70
2022/04/24 08:48:58;;;;;;;;;;;;;;;20.78;24.29;91012.09;2052471;69;20082;-70
2022/04/24 08:51:24;;;;;;;;;;;;;;;20.68;22.76;91015.00;2049324;70;20505;-70
2022/04/24 08:53:50;;;;;;;;;;;;;;;19.95;24.09;91013.66;2052325;70;20043;-70
2022/04/24 08:56:16;;;;;;;;;;;;;;;19.04;23.50;91022.81;2052558;70;20508;-71
2022/04/24 08:58:42;;;;;;;;;;;;;;;19.30;23.66;91022.88;2049186;70;20062;-71
2022/04/24 09:01:08;;;;;;;;;;;;;;;20.04;24.34;91017.94;2052420;70;20509;-71
2022/04/24 09:03:33;;;;;;;;;;;;;;;19.53;23.53;91017.94;2049147;70;20078;-70
2022/04/24 09:05:58;;;;;;;;;;;;;;;19.56;23.75;91021.47;2052567;70;20106;-71
2022/04/24 09:08:24;;;;;;;;;;;;;;;19.61;23.23;91011.53;2049001;70;20141;-70
2022/04/24 09:10:51;;;;;;;;;;;;;;;20.04;24.36;91017.94;2052446;69;20242;-72
2022/04/24 09:14:14;;;;;;;;;;;;;;;19.27;23.65;91012.19;2048904;70;20397;-70
2022/04/24 09:16:18;;;;;;;;;;;;;;;19.73;24.51;91019.38;2052514;69;20054;-70
2022/04/24 09:18:46;;;;;;;;;;;;;;;19.99;25.16;91007.25;2052453;70;20062;-70
2022/04/24 09:21:13;;;;;;;;;;;;;;;19.51;25.16;91012.19;2052388;69;20046;-71
2022/04/24 09:23:38;;;;;;;;;;;;;;;19.50;24.11;91007.22;2052287;70;20135;-70
2022/04/24 09:26:04;;;;;;;;;;;;;;;19.86;25.13;91002.97;2052444;70;20061;-70
2022/04/24 09:28:40;;;;;;;;;;;;;;;19.72;24.38;91003.69;2049161;69;20487;-71
2022/04/24 09:31:06;;;;;;;;;;;;;;;19.57;24.33;91007.94;2052429;70;20056;-71
2022/04/24 09:33:35;;;;;;;;;;;;;;;18.99;23.96;91007.84;2052661;70;20472;-72
2022/04/24 09:36:02;;;;;;;;;;;;;;;19.64;23.99;91006.53;2052416;70;20116;-71
2022/04/24 09:38:27;;;;;;;;;;;;;;;18.91;23.52;91009.94;2049044;69;20090;-73
2022/04/24 09:40:53;;;;;;;;;;;;;;;19.56;23.01;91010.06;2052361;70;20137;-72
2022/04/24 09:43:22;;;;;;;;;;;;;;;20.05;25.29;91012.94;2052335;70;20054;-70
2022/04/24 09:45:53;;;;;;;;;;;;;;;20.30;23.17;91008.63;2052379;70;20053;-71
2022/04/24 09:48:19;;;;;;;;;;;;;;;20.67;22.55;91005.00;2052368;70;20477;-70
2022/04/24 09:50:45;;;;;;;;;;;;;;;21.02;21.80;91014.13;2049076;70;20047;-70
2022/04/24 09:53:12;;;;;;;;;;;;;;;20.78;22.68;91007.09;2052404;70;20054;-71
2022/04/24 09:55:40;;;;;;;;;;;;;;;20.05;22.20;91012.94;2049027;70;20147;-68
2022/04/24 09:58:06;;;;;;;;;;;;;;;19.73;22.16;91011.53;2052347;69;20109;-71
2022/04/24 10:00:32;;;;;;;;;;;;;;;19.85;22.06;91013.69;2052397;70;20050;-69
2022/04/24 10:02:58;;;;;;;;;;;;;;;19.61;22.43;91013.66;2048985;70;20054;-68
2022/04/24 10:05:28;;;;;;;;;;;;;;;19.00;22.76;91009.25;2046246;69;20166;-73
2022/04/24 10:07:54;;;;;;;;;;;;;;;18.89;22.45;91007.81;2052176;69;20390;-71
2022/04/24 10:10:19;;;;;;;;;;;;;;;19.66;21.80;91010.13;2052397;70;20050;-71
2022/04/24 10:12:48;;;;;;;;;;;;;;;20.23;22.69;91007.22;2052201;70;20069;-72
2022/04/24 10:15:16;;;;;;;;;;;;;;;19.90;22.17;91011.53;2048937;70;20050;-71
2022/04/24 10:17:42;;;;;;;;;;;;;;;18.64;22.27;91009.81;2052261;70;20485;-72
2022/04/24 10:20:26;;;;;;;;;;;;;;;18.56;23.66;91015.50;2052276;70;20062;-71
2022/04/24 10:22:52;;;;;;;;;;;;;;;18.69;21.60;91011.31;2052076;70;20528;-72
2022/04/24 10:25:28;;;;;;;;;;;;;;;19.77;23.65;91005.81;2048807;70;20428;-70
2022/04/24 10:27:53;;;;;;;;;;;;;;;19.98;22.53;91000.13;2052315;70;20146;-69
2022/04/24 10:30:22;;;;;;;;;;;;;;;19.29;21.58;91000.78;2052449;70;20053;-70
2022/04/24 10:32:48;;;;;;;;;;;;;;;19.66;21.64;90998.69;2049158;70;20053;-70
2022/04/24 10:35:16;;;;;;;;;;;;;;;20.26;21.43;90996.50;2052105;69;20082;-69
2022/04/24 10:37:42;;;;;;;;;;;;;;;21.37;21.76;91005.41;2052079;69;20057;-70
2022/04/24 10:40:12;;;;;;;;;;;;;;;21.21;20.60;91004.03;2051950;70;20054;-71
2022/04/24 10:42:38;;;;;;;;;;;;;;;21.15;20.20;90995.47;2052126;70;20489;-70
2022/04/24 10:45:08;;;;;;;;;;;;;;;20.72;20.38;90994.97;2052266;69;20051;-70
2022/04/24 10:47:42;;;;;;;;;;;;;;;20.62;20.31;90992.84;2052155;70;20193;-71
2022/04/24 10:50:07;;;;;;;;;;;;;;;20.56;21.68;90990.00;2052241;69;20489;-72
2022/04/24 10:52:45;;;;;;;;;;;;;;;20.90;21.02;90997.75;2052163;70;20053;-72
2022/04/24 10:55:14;;;;;;;;;;;;;;;20.14;21.21;90997.22;2052108;70;20112;-69
2022/04/24 10:57:44;;;;;;;;;;;;;;;18.81;21.88;90996.38;2051186;70;20050;-70
2022/04/24 11:00:13;;;;;;;;;;;;;;;19.23;21.72;90995.75;2052076;70;20058;-72
2022/04/24 11:02:39;;;;;;;;;;;;;;;19.90;23.00;91000.13;2052114;69;20090;-71
2022/04/24 11:05:09;;;;;;;;;;;;;;;19.97;20.73;91007.94;2052142;70;20584;-71
2022/04/24 11:07:35;;;;;;;;;;;;;;;20.20;21.25;91005.06;2053066;70;20115;-70
2022/04/24 11:10:11;;;;;;;;;;;;;;;20.39;21.36;91003.63;2068319;69;20491;-69
2022/04/24 11:12:37;;;;;;;;;;;;;;;20.01;21.28;91007.22;2068387;69;20509;-69
2022/04/24 11:15:03;;;;;;;;;;;;;;;19.67;21.43;91010.81;2055220;70;20078;-69
2022/04/24 11:17:28;;;;;;;;;;;;;;;19.85;20.76;91012.97;2068307;69;20054;-68
2022/04/24 11:19:59;;;;;;;;;;;;;;;20.47;20.40;91005.72;2055317;70;20114;-68
2022/04/24 11:22:24;;;;;;;;;;;;;;;20.44;20.79;91010.75;2055331;69;20050;-68
2022/04/24 11:24:53;;;;;;;;;;;;;;;21.65;20.27;91019.53;2055308;70;20149;-68
2022/04/24 11:27:18;;;;;;;;;;;;;;;24.71;18.29;91033.06;2055375;70;20525;-69
2022/04/24 11:29:44;;;;;;;;;;;;;;;20.40;20.95;91033.63;2055363;70;20086;-71
2022/04/24 11:32:11;;;;;;;;;;;;;;;19.65;22.03;91045.78;2055328;70;20050;-71
2022/04/24 11:34:37;;;;;;;;;;;;;;;20.74;21.63;91043.56;2068357;69;20119;-70
2022/04/24 11:37:04;;;;;;;;;;;;;;;21.67;20.23;91051.03;2055632;70;20088;-71
2022/04/24 11:39:29;;;;;;;;;;;;;;;21.55;20.45;91031.75;2055761;69;20046;-70
2022/04/24 11:41:58;;;;;;;;;;;;;;;19.69;21.57;91022.94;2055856;70;20054;-69
2022/04/24 11:50:36;;;;;;;;;;;;;;;23.18;19.89;91028.84;2068843;69;20069;-68
2022/04/24 11:52:46;;;;;;;;;;;;;;;23.22;19.65;91026.66;2056964;69;20113;-68
2022/04/24 11:55:13;;;;;;;;;;;;;;;20.82;20.68;91009.22;2055680;70;20093;-69
2022/04/24 11:57:38;;;;;;;;;;;;;;;19.86;22.07;91017.97;2055884;69;20039;-69
2022/04/24 12:00:05;;;;;;;;;;;;;;;19.10;23.00;91019.25;2055875;70;20480;-70
2022/04/24 12:02:32;;;;;;;;;;;;;;;19.05;23.57;91024.94;2055877;70;20111;-67
2022/04/24 12:04:58;;;;;;;;;;;;;;;18.35;23.90;91022.50;2055722;70;20054;-68
2022/04/24 12:07:31;;;;;;;;;;;;;;;18.29;23.98;91023.19;2055822;70;20057;-68
2022/04/24 12:10:01;;;;;;;;;;;;;;;18.76;24.50;91021.28;2055780;69;20038;-70
2022/04/24 12:12:27;;;;;;;;;;;;;;;18.45;24.20;91037.50;2055887;70;20133;-68
2022/04/24 12:14:52;;;;;;;;;;;;;;;18.77;23.72;91022.72;2055741;70;20509;-68
2022/04/24 12:17:18;;;;;;;;;;;;;;;18.87;23.90;91027.03;2055781;70;20054;-68
2022/04/24 12:19:51;;;;;;;;;;;;;;;17.98;24.10;91019.44;2055810;69;20094;-69
2022/04/24 12:22:25;;;;;;;;;;;;;;;18.00;24.95;91025.13;2055782;69;20058;-70
2022/04/24 12:24:50;;;;;;;;;;;;;;;18.87;24.61;91024.88;2055594;70;20064;-70
2022/04/24 12:27:16;;;;;;;;;;;;;;;19.32;23.58;91030.72;2055822;70;20149;-70
2022/04/24 12:29:48;;;;;;;;;;;;;;;18.88;23.21;91037.03;2055731;70;20490;-70
2022/04/24 12:32:14;;;;;;;;;;;;;;;18.08;23.62;91036.56;2068720;69;20050;-69
2022/04/24 12:34:40;;;;;;;;;;;;;;;19.90;22.14;91034.38;2068789;69;20092;-69
2022/04/24 12:37:06;;;;;;;;;;;;;;;22.69;20.47;91035.16;2055680;70;20058;-69
2022/04/24 12:39:32;;;;;;;;;;;;;;;24.63;18.56;91021.69;2055631;70;20125;-73
2022/04/24 12:41:58;;;;;;;;;;;;;;;25.70;17.04;91008.78;2068682;69;20052;-70
2022/04/24 12:44:24;;;;;;;;;;;;;;;25.30;17.12;91016.84;2055813;69;20054;-73
2022/04/24 12:46:50;;;;;;;;;;;;;;;26.25;16.45;91013.31;2055602;69;20118;-69
2022/04/24 12:49:36;;;;;;;;;;;;;;;23.09;17.70;91005.28;2055323;70;20054;-70